createdAt,value
2023-04-03T00:00:04.922Z,0.00
2023-04-03T00:01:04.845Z,0.00
2023-04-03T00:02:04.824Z,0.00
2023-04-03T00:03:04.832Z,0.00
2023-04-03T00:04:04.811Z,0.00
2023-04-03T00:05:04.772Z,0.00
2023-04-03T00:06:04.759Z,0.00
2023-04-03T00:07:04.842Z,0.00
2023-04-03T00:08:04.728Z,0.00
2023-04-03T00:09:04.844Z,0.00
2023-04-03T00:10:04.745Z,0.00
2023-04-03T00:11:04.720Z,0.00
2023-04-03T00:12:04.675Z,0.00
2023-04-03T00:13:04.665Z,0.00
2023-04-03T00:14:05.000Z,0.00
2023-04-03T00:15:04.639Z,0.00
2023-04-03T00:16:04.643Z,0.00
2023-04-03T00:17:04.655Z,0.00
2023-04-03T00:18:04.668Z,0.00
2023-04-03T00:19:04.583Z,0.00
2023-04-03T00:20:04.569Z,0.00
2023-04-03T00:21:04.565Z,0.00
2023-04-03T00:22:04.542Z,0.00
2023-04-03T00:23:04.536Z,0.00
2023-04-03T00:24:04.517Z,0.00
2023-04-03T00:25:04.502Z,0.00
2023-04-03T00:26:04.482Z,0.00
2023-04-03T00:27:04.472Z,0.00
2023-04-03T00:28:04.455Z,0.00
2023-04-03T00:29:04.484Z,0.00
2023-04-03T00:30:04.442Z,0.00
2023-04-03T00:31:04.458Z,0.00
2023-04-03T00:32:04.428Z,0.00
2023-04-03T00:33:04.415Z,0.00
2023-04-03T00:34:04.380Z,0.00
2023-04-03T00:35:04.378Z,0.00
2023-04-03T00:36:04.410Z,0.00
2023-04-03T00:37:04.386Z,0.00
2023-04-03T00:38:04.331Z,0.00
2023-04-03T00:39:04.317Z,0.00
2023-04-03T00:40:04.295Z,0.00
2023-04-03T00:41:04.281Z,0.00
2023-04-03T00:42:04.265Z,0.00
2023-04-03T00:43:04.256Z,0.00
2023-04-03T00:44:04.241Z,0.00
2023-04-03T00:45:04.228Z,0.00
2023-04-03T00:46:04.227Z,0.00
2023-04-03T00:47:04.199Z,0.00
2023-04-03T00:48:04.261Z,0.00
2023-04-03T00:49:04.178Z,0.00
2023-04-03T00:50:04.165Z,0.00
2023-04-03T00:51:04.152Z,0.00
2023-04-03T00:52:04.140Z,0.00
2023-04-03T00:53:04.125Z,0.00
2023-04-03T00:54:04.117Z,0.00
2023-04-03T00:55:04.096Z,0.00
2023-04-03T00:56:04.089Z,0.00
2023-04-03T00:57:04.067Z,0.00
2023-04-03T00:58:04.061Z,0.00
2023-04-03T00:59:04.037Z,0.00
2023-04-03T01:00:04.032Z,0.00
2023-04-03T01:01:04.009Z,0.00
2023-04-03T01:02:04.041Z,0.00
2023-04-03T01:03:04.013Z,0.00
2023-04-03T01:04:04.167Z,0.00
2023-04-03T01:05:03.966Z,0.00
2023-04-03T01:06:03.953Z,0.00
2023-04-03T01:07:03.935Z,0.00
2023-04-03T01:08:03.927Z,0.00
2023-04-03T01:09:03.905Z,0.00
2023-04-03T01:10:03.911Z,0.00
2023-04-03T01:11:03.876Z,0.00
2023-04-03T01:12:03.867Z,0.00
2023-04-03T01:13:03.856Z,0.00
2023-04-03T01:14:03.857Z,0.00
2023-04-03T01:15:03.860Z,0.00
2023-04-03T01:16:03.829Z,0.00
2023-04-03T01:17:03.800Z,0.00
2023-04-03T01:18:03.836Z,0.00
2023-04-03T01:19:03.776Z,0.00
2023-04-03T01:20:03.783Z,0.00
2023-04-03T01:21:03.765Z,0.00
2023-04-03T01:22:03.729Z,0.00
2023-04-03T01:23:03.718Z,0.00
2023-04-03T01:24:03.704Z,0.00
2023-04-03T01:25:03.692Z,0.00
2023-04-03T01:26:03.678Z,0.00
2023-04-03T01:27:03.689Z,0.00
2023-04-03T01:28:03.655Z,0.00
2023-04-03T01:29:03.638Z,0.00
2023-04-03T01:30:03.637Z,0.00
2023-04-03T01:31:03.617Z,0.00
2023-04-03T01:32:03.602Z,0.00
2023-04-03T01:33:03.610Z,0.00
2023-04-03T01:34:03.600Z,0.00
2023-04-03T01:35:03.572Z,0.00
2023-04-03T01:36:03.600Z,0.00
2023-04-03T01:37:03.543Z,0.00
2023-04-03T01:38:03.511Z,0.00
2023-04-03T01:39:03.518Z,0.00
2023-04-03T01:40:03.490Z,0.00
2023-04-03T01:41:03.501Z,0.00
2023-04-03T01:42:03.465Z,0.00
2023-04-03T01:43:03.452Z,0.00
2023-04-03T01:44:03.432Z,0.00
2023-04-03T01:45:03.426Z,0.00
2023-04-03T01:46:03.459Z,0.00
2023-04-03T01:47:03.403Z,0.00
2023-04-03T01:48:03.384Z,0.00
2023-04-03T01:49:03.368Z,0.00
2023-04-03T01:50:03.356Z,0.00
2023-04-03T01:51:03.345Z,0.00
2023-04-03T01:52:03.362Z,0.00
2023-04-03T01:53:03.325Z,0.00
2023-04-03T01:54:03.301Z,0.00
2023-04-03T01:55:03.311Z,0.00
2023-04-03T01:56:03.281Z,0.00
2023-04-03T01:57:03.302Z,0.00
2023-04-03T01:58:03.547Z,0.00
2023-04-03T01:59:03.251Z,0.00
2023-04-03T02:00:03.216Z,0.00
2023-04-03T02:01:03.264Z,0.00
2023-04-03T02:02:03.189Z,0.00
2023-04-03T02:03:03.209Z,0.00
2023-04-03T02:04:03.190Z,0.00
2023-04-03T02:05:03.150Z,0.00
2023-04-03T02:06:03.140Z,0.00
2023-04-03T02:07:03.132Z,0.00
2023-04-03T02:08:03.143Z,0.00
2023-04-03T02:09:03.103Z,0.00
2023-04-03T02:10:03.099Z,0.00
2023-04-03T02:11:03.079Z,0.00
2023-04-03T02:12:03.079Z,0.00
2023-04-03T02:13:03.040Z,0.00
2023-04-03T02:14:03.033Z,0.00
2023-04-03T02:15:03.024Z,0.00
2023-04-03T02:16:03.004Z,0.00
2023-04-03T02:17:03.071Z,0.00
2023-04-03T02:18:03.010Z,0.00
2023-04-03T02:19:02.965Z,0.00
2023-04-03T02:20:02.955Z,0.00
2023-04-03T02:21:02.953Z,0.00
2023-04-03T02:22:02.938Z,0.00
2023-04-03T02:23:02.913Z,0.00
2023-04-03T02:24:02.917Z,0.00
2023-04-03T02:25:02.885Z,0.00
2023-04-03T02:26:02.985Z,0.00
2023-04-03T02:27:02.850Z,0.00
2023-04-03T02:28:02.832Z,0.00
2023-04-03T02:29:02.831Z,0.00
2023-04-03T02:30:02.805Z,0.00
2023-04-03T02:31:02.867Z,0.00
2023-04-03T02:32:02.787Z,0.00
2023-04-03T02:33:02.813Z,0.00
2023-04-03T02:34:02.759Z,0.00
2023-04-03T02:35:02.755Z,0.00
2023-04-03T02:36:02.835Z,0.00
2023-04-03T02:37:02.737Z,0.00
2023-04-03T02:38:02.706Z,0.00
2023-04-03T02:39:02.697Z,0.00
2023-04-03T02:40:02.749Z,0.00
2023-04-03T02:41:02.686Z,0.00
2023-04-03T02:42:02.657Z,0.00
2023-04-03T02:43:02.650Z,0.00
2023-04-03T02:44:02.620Z,0.00
2023-04-03T02:45:02.615Z,0.00
2023-04-03T02:46:02.622Z,0.00
2023-04-03T02:47:02.580Z,0.00
2023-04-03T02:48:02.604Z,0.00
2023-04-03T02:49:02.567Z,0.00
2023-04-03T02:50:02.559Z,0.00
2023-04-03T02:51:02.530Z,0.00
2023-04-03T02:52:02.518Z,0.00
2023-04-03T02:53:02.516Z,0.00
2023-04-03T02:54:02.507Z,0.00
2023-04-03T02:55:02.776Z,0.00
2023-04-03T02:56:02.488Z,0.00
2023-04-03T02:57:02.497Z,0.00
2023-04-03T02:58:02.437Z,0.00
2023-04-03T02:59:02.621Z,0.00
2023-04-03T03:00:02.607Z,0.00
2023-04-03T03:01:02.393Z,0.00
2023-04-03T03:02:02.552Z,0.00
2023-04-03T03:03:02.384Z,0.00
2023-04-03T03:04:02.368Z,0.00
2023-04-03T03:05:02.463Z,0.00
2023-04-03T03:06:02.331Z,0.00
2023-04-03T03:07:02.319Z,0.00
2023-04-03T03:08:02.318Z,0.00
2023-04-03T03:09:02.297Z,0.00
2023-04-03T03:10:02.294Z,0.00
2023-04-03T03:11:02.273Z,0.00
2023-04-03T03:12:02.268Z,0.00
2023-04-03T03:13:02.226Z,0.00
2023-04-03T03:14:02.217Z,0.00
2023-04-03T03:15:02.205Z,0.00
2023-04-03T03:16:02.309Z,0.00
2023-04-03T03:17:02.175Z,0.00
2023-04-03T03:18:02.273Z,0.00
2023-04-03T03:19:02.148Z,0.00
2023-04-03T03:20:02.375Z,0.00
2023-04-03T03:21:02.131Z,0.00
2023-04-03T03:22:02.118Z,0.00
2023-04-03T03:23:02.365Z,0.00
2023-04-03T03:24:02.081Z,0.00
2023-04-03T03:25:02.113Z,0.00
2023-04-03T03:26:02.063Z,0.00
2023-04-03T03:27:02.036Z,0.00
2023-04-03T03:28:02.050Z,0.00
2023-04-03T03:29:02.010Z,0.00
2023-04-03T03:30:02.006Z,0.00
2023-04-03T03:31:02.039Z,0.00
2023-04-03T03:32:02.322Z,0.00
2023-04-03T03:33:02.136Z,0.00
2023-04-03T03:34:01.948Z,0.00
2023-04-03T03:35:01.934Z,0.00
2023-04-03T03:36:01.957Z,0.00
2023-04-03T03:37:01.916Z,0.00
2023-04-03T03:38:01.938Z,0.00
2023-04-03T03:39:01.874Z,0.00
2023-04-03T03:40:01.868Z,0.00
2023-04-03T03:41:01.862Z,0.00
2023-04-03T03:42:01.840Z,0.00
2023-04-03T03:43:01.833Z,0.00
2023-04-03T03:44:01.851Z,0.00
2023-04-03T03:45:01.796Z,0.00
2023-04-03T03:46:01.781Z,0.00
2023-04-03T03:47:01.774Z,0.00
2023-04-03T03:48:01.775Z,0.00
2023-04-03T03:49:01.743Z,0.00
2023-04-03T03:50:01.726Z,0.00
2023-04-03T03:51:01.726Z,0.00
2023-04-03T03:52:01.697Z,0.00
2023-04-03T03:53:01.688Z,0.00
2023-04-03T03:54:01.674Z,0.00
2023-04-03T03:55:01.659Z,0.00
2023-04-03T03:56:01.640Z,0.00
2023-04-03T03:57:01.656Z,0.00
2023-04-03T03:58:01.631Z,0.00
2023-04-03T03:59:01.607Z,0.00
2023-04-03T04:00:01.616Z,0.00
2023-04-03T04:01:01.590Z,0.00
2023-04-03T04:02:01.622Z,0.00
2023-04-03T04:03:01.606Z,0.00
2023-04-03T04:04:01.591Z,0.00
2023-04-03T04:05:01.524Z,0.00
2023-04-03T04:06:01.508Z,0.00
2023-04-03T04:07:01.495Z,0.00
2023-04-03T04:08:01.491Z,0.00
2023-04-03T04:09:01.465Z,0.00
2023-04-03T04:10:01.462Z,0.00
2023-04-03T04:11:01.436Z,0.00
2023-04-03T04:12:01.421Z,0.00
2023-04-03T04:13:01.458Z,0.00
2023-04-03T04:14:01.413Z,0.00
2023-04-03T04:15:01.381Z,0.00
2023-04-03T04:16:01.394Z,0.00
2023-04-03T04:17:01.407Z,0.00
2023-04-03T04:18:01.417Z,0.00
2023-04-03T04:19:01.334Z,0.00
2023-04-03T04:20:01.315Z,0.00
2023-04-03T04:21:01.307Z,0.00
2023-04-03T04:22:01.287Z,0.00
2023-04-03T04:23:01.318Z,0.00
2023-04-03T04:24:01.263Z,0.00
2023-04-03T04:25:01.260Z,0.00
2023-04-03T04:26:01.253Z,0.00
2023-04-03T04:27:01.226Z,0.00
2023-04-03T04:28:01.214Z,0.00
2023-04-03T04:29:01.202Z,0.00
2023-04-03T04:30:01.182Z,4.00
2023-04-03T04:31:01.228Z,0.00
2023-04-03T04:32:01.175Z,4.00
2023-04-03T04:33:01.188Z,0.00
2023-04-03T04:34:01.143Z,4.00
2023-04-03T04:35:01.177Z,4.00
2023-04-03T04:36:01.156Z,0.00
2023-04-03T04:37:01.238Z,8.00
2023-04-03T04:38:01.089Z,8.00
2023-04-03T04:39:01.055Z,8.00
2023-04-03T04:40:01.056Z,8.00
2023-04-03T04:41:01.036Z,8.00
2023-04-03T04:42:01.034Z,12.00
2023-04-03T04:43:01.012Z,8.00
2023-04-03T04:44:00.996Z,12.00
2023-04-03T04:45:00.982Z,12.00
2023-04-03T04:46:00.997Z,16.00
2023-04-03T04:47:00.951Z,16.00
2023-04-03T04:48:00.989Z,20.00
2023-04-03T04:49:00.932Z,24.00
2023-04-03T04:50:00.912Z,24.00
2023-04-03T04:51:00.912Z,24.00
2023-04-03T04:52:00.884Z,28.00
2023-04-03T04:53:00.871Z,28.00
2023-04-03T04:54:00.859Z,36.00
2023-04-03T04:55:00.849Z,40.00
2023-04-03T04:56:00.825Z,48.00
2023-04-03T04:57:00.824Z,52.00
2023-04-03T04:58:00.818Z,60.00
2023-04-03T04:59:00.786Z,68.00
2023-04-03T05:00:00.785Z,68.00
2023-04-03T05:01:00.767Z,76.00
2023-04-03T05:02:00.772Z,80.00
2023-04-03T05:03:00.764Z,92.00
2023-04-03T05:04:00.750Z,100.00
2023-04-03T05:05:02.448Z,108.00
2023-04-03T05:06:00.707Z,116.00
2023-04-03T05:07:00.694Z,128.00
2023-04-03T05:08:00.677Z,136.00
2023-04-03T05:09:00.657Z,152.00
2023-04-03T05:10:00.680Z,164.00
2023-04-03T05:11:00.638Z,172.00
2023-04-03T05:12:00.630Z,184.00
2023-04-03T05:13:00.608Z,196.00
2023-04-03T05:14:00.588Z,216.00
2023-04-03T05:15:00.578Z,220.00
2023-04-03T05:16:00.593Z,236.00
2023-04-03T05:17:00.695Z,244.00
2023-04-03T05:18:00.614Z,252.00
2023-04-03T05:19:00.528Z,272.00
2023-04-03T05:20:00.535Z,304.00
2023-04-03T05:21:00.498Z,340.00
2023-04-03T05:22:00.491Z,384.00
2023-04-03T05:23:00.464Z,412.00
2023-04-03T05:24:00.448Z,432.00
2023-04-03T05:25:00.440Z,456.00
2023-04-03T05:26:00.424Z,480.00
2023-04-03T05:27:00.409Z,516.00
2023-04-03T05:28:00.402Z,564.00
2023-04-03T05:29:00.416Z,616.00
2023-04-03T05:30:00.387Z,664.00
2023-04-03T05:31:00.361Z,704.00
2023-04-03T05:32:00.375Z,700.00
2023-04-03T05:33:00.356Z,680.00
2023-04-03T05:34:00.327Z,664.00
2023-04-03T05:35:01.381Z,668.00
2023-04-03T05:36:00.326Z,684.00
2023-04-03T05:37:00.280Z,692.00
2023-04-03T05:38:00.415Z,696.00
2023-04-03T05:39:00.251Z,724.00
2023-04-03T05:40:00.236Z,752.00
2023-04-03T05:41:00.218Z,764.00
2023-04-03T05:42:00.210Z,788.00
2023-04-03T05:43:00.198Z,860.00
2023-04-03T05:44:00.182Z,952.00
2023-04-03T05:45:00.166Z,1032.00
2023-04-03T05:46:00.216Z,1104.00
2023-04-03T05:47:00.142Z,1168.00
2023-04-03T05:48:00.238Z,1224.00
2023-04-03T05:51:15.585Z,1228.00
2023-04-03T05:52:15.546Z,1220.00
2023-04-03T05:53:15.527Z,1248.00
2023-04-03T05:54:15.515Z,1284.00
2023-04-03T05:55:15.507Z,1384.00
2023-04-03T05:56:15.485Z,1532.00
2023-04-03T05:57:15.499Z,1636.00
2023-04-03T05:58:15.470Z,1644.00
2023-04-03T05:59:15.455Z,1636.00
2023-04-03T06:00:15.492Z,1656.00
2023-04-03T06:01:15.420Z,1664.00
2023-04-03T06:02:15.406Z,1652.00
2023-04-03T06:03:15.622Z,1616.00
2023-04-03T06:04:15.432Z,1652.00
2023-04-03T06:05:15.394Z,1760.00
2023-04-03T06:06:15.366Z,1908.00
2023-04-03T06:07:15.368Z,2036.00
2023-04-03T06:08:15.334Z,2088.00
2023-04-03T06:09:15.518Z,2068.00
2023-04-03T06:10:15.301Z,2108.00
2023-04-03T06:11:15.292Z,2164.00
2023-04-03T06:12:15.284Z,2312.00
2023-04-03T06:13:15.263Z,2440.00
2023-04-03T06:14:15.247Z,2444.00
2023-04-03T06:15:15.236Z,2440.00
2023-04-03T06:16:15.255Z,2456.00
2023-04-03T06:17:15.306Z,2404.00
2023-04-03T06:18:15.195Z,2440.00
2023-04-03T06:19:15.189Z,2552.00
2023-04-03T06:20:15.178Z,2680.00
2023-04-03T06:21:15.149Z,2776.00
2023-04-03T06:22:15.144Z,2856.00
2023-04-03T06:23:15.176Z,2860.00
2023-04-03T06:24:15.116Z,2916.00
2023-04-03T06:25:15.119Z,2932.00
2023-04-03T06:26:15.088Z,2844.00
2023-04-03T06:27:15.278Z,2852.00
2023-04-03T06:28:15.061Z,2784.00
2023-04-03T06:29:15.049Z,2700.00
2023-04-03T06:30:15.030Z,2764.00
2023-04-03T06:31:15.043Z,2812.00
2023-04-03T06:32:15.014Z,2780.00
2023-04-03T06:33:15.004Z,2780.00
2023-04-03T06:34:15.010Z,2920.00
2023-04-03T06:35:14.971Z,3152.00
2023-04-03T06:36:14.991Z,3452.00
2023-04-03T06:37:14.940Z,3552.00
2023-04-03T06:38:14.928Z,3452.00
2023-04-03T06:39:14.939Z,3492.00
2023-04-03T06:40:14.904Z,3664.00
2023-04-03T06:41:14.881Z,3748.00
2023-04-03T06:42:14.872Z,3696.00
2023-04-03T06:43:14.858Z,3708.00
2023-04-03T06:44:14.845Z,3908.00
2023-04-03T06:45:14.831Z,4124.00
2023-04-03T06:46:15.058Z,4176.00
2023-04-03T06:47:14.804Z,4176.00
2023-04-03T06:48:14.858Z,4160.00
2023-04-03T06:49:14.783Z,4212.00
2023-04-03T06:50:14.793Z,4152.00
2023-04-03T06:51:14.752Z,4128.00
2023-04-03T06:52:14.756Z,4052.00
2023-04-03T06:53:14.731Z,4080.00
2023-04-03T06:54:14.718Z,4348.00
2023-04-03T06:55:14.743Z,4648.00
2023-04-03T06:56:14.686Z,4756.00
2023-04-03T06:57:14.679Z,4588.00
2023-04-03T06:58:14.916Z,4480.00
2023-04-03T06:59:14.640Z,4448.00
2023-04-03T07:00:14.623Z,4508.00
2023-04-03T07:01:14.652Z,4560.00
2023-04-03T07:02:14.599Z,4696.00
2023-04-03T07:03:14.740Z,4820.00
2023-04-03T07:04:14.603Z,4996.00
2023-04-03T07:05:14.566Z,5092.00
2023-04-03T07:06:14.548Z,5096.00
2023-04-03T07:07:14.532Z,5208.00
2023-04-03T07:08:14.532Z,5352.00
2023-04-03T07:09:14.525Z,5532.00
2023-04-03T07:10:14.489Z,5688.00
2023-04-03T07:11:14.659Z,5608.00
2023-04-03T07:12:14.803Z,5668.00
2023-04-03T07:13:14.453Z,5788.00
2023-04-03T07:14:14.439Z,6112.00
2023-04-03T07:15:14.425Z,6500.00
2023-04-03T07:16:14.469Z,6788.00
2023-04-03T07:17:14.395Z,7132.00
2023-04-03T07:18:14.448Z,7376.00
2023-04-03T07:19:14.369Z,7564.00
2023-04-03T07:20:14.349Z,7920.00
2023-04-03T07:21:14.335Z,8744.00
2023-04-03T07:22:14.328Z,9868.00
2023-04-03T07:23:14.315Z,11232.00
2023-04-03T07:24:16.226Z,11404.00
2023-04-03T07:25:14.350Z,10464.00
2023-04-03T07:26:14.280Z,9744.00
2023-04-03T07:27:14.281Z,9400.00
2023-04-03T07:28:14.256Z,9544.00
2023-04-03T07:29:14.232Z,9876.00
2023-04-03T07:30:14.228Z,10648.00
2023-04-03T07:31:14.262Z,10352.00
2023-04-03T07:32:14.202Z,10432.00
2023-04-03T07:33:14.383Z,10256.00
2023-04-03T07:34:14.264Z,10144.00
2023-04-03T07:35:14.152Z,10164.00
2023-04-03T07:36:14.207Z,10140.00
2023-04-03T07:37:14.129Z,10136.00
2023-04-03T07:38:14.126Z,10564.00
2023-04-03T07:39:14.105Z,10924.00
2023-04-03T07:40:14.093Z,11404.00
2023-04-03T07:41:14.077Z,11596.00
2023-04-03T07:42:14.078Z,11716.00
2023-04-03T07:43:14.068Z,11872.00
2023-04-03T07:44:14.200Z,12292.00
2023-04-03T07:45:14.015Z,13344.00
2023-04-03T07:46:14.044Z,13660.00
2023-04-03T07:47:13.996Z,12880.00
2023-04-03T07:48:14.010Z,12772.00
2023-04-03T07:49:13.961Z,12328.00
2023-04-03T07:50:13.954Z,11980.00
2023-04-03T07:51:13.942Z,12564.00
2023-04-03T07:52:13.920Z,19232.00
2023-04-03T07:53:13.914Z,13600.00
2023-04-03T07:54:13.898Z,13708.00
2023-04-03T07:55:13.886Z,13780.00
2023-04-03T07:56:13.873Z,13216.00
2023-04-03T07:57:13.877Z,14160.00
2023-04-03T07:58:13.847Z,13168.00
2023-04-03T07:59:13.854Z,13212.00
2023-04-03T08:00:13.830Z,13904.00
2023-04-03T08:01:13.798Z,16512.00
2023-04-03T08:02:13.787Z,16832.00
2023-04-03T08:03:13.953Z,15360.00
2023-04-03T08:04:14.078Z,15680.00
2023-04-03T08:05:13.747Z,15424.00
2023-04-03T08:06:16.452Z,15032.00
2023-04-03T08:07:13.724Z,14380.00
2023-04-03T08:08:13.715Z,14660.00
2023-04-03T08:09:13.711Z,15552.00
2023-04-03T08:10:13.680Z,17152.00
2023-04-03T08:11:13.669Z,22016.00
2023-04-03T08:12:13.662Z,18592.00
2023-04-03T08:13:13.634Z,17152.00
2023-04-03T08:14:13.628Z,16064.00
2023-04-03T08:15:13.832Z,15808.00
2023-04-03T08:16:13.657Z,16096.00
2023-04-03T08:17:13.581Z,15316.00
2023-04-03T08:18:13.572Z,16192.00
2023-04-03T08:19:22.361Z,16832.00
2023-04-03T08:20:14.570Z,16256.00
2023-04-03T08:21:13.527Z,15872.00
2023-04-03T08:22:13.517Z,16320.00
2023-04-03T08:23:13.506Z,15584.00
2023-04-03T08:24:13.499Z,15616.00
2023-04-03T08:25:13.474Z,15288.00
2023-04-03T08:26:13.459Z,15188.00
2023-04-03T08:27:13.445Z,15228.00
2023-04-03T08:28:13.430Z,15776.00
2023-04-03T08:29:13.414Z,15744.00
2023-04-03T08:30:13.402Z,15648.00
2023-04-03T08:31:13.522Z,15616.00
2023-04-03T08:32:13.378Z,15284.00
2023-04-03T08:33:13.440Z,15216.00
2023-04-03T08:34:13.363Z,15256.00
2023-04-03T08:35:13.336Z,15400.00
2023-04-03T08:36:13.400Z,15320.00
2023-04-03T08:37:13.302Z,15292.00
2023-04-03T08:38:13.312Z,15136.00
2023-04-03T08:39:13.282Z,14952.00
2023-04-03T08:40:13.260Z,15076.00
2023-04-03T08:41:13.250Z,15416.00
2023-04-03T08:42:13.241Z,16000.00
2023-04-03T08:43:13.242Z,15584.00
2023-04-03T08:44:13.221Z,14816.00
2023-04-03T08:45:13.216Z,14596.00
2023-04-03T08:46:13.246Z,14072.00
2023-04-03T08:47:13.297Z,13820.00
2023-04-03T08:48:13.246Z,13864.00
2023-04-03T08:49:14.055Z,13676.00
2023-04-03T08:50:13.129Z,13576.00
2023-04-03T08:51:13.115Z,13284.00
2023-04-03T08:52:13.107Z,13292.00
2023-04-03T08:53:13.088Z,13528.00
2023-04-03T08:54:13.074Z,13300.00
2023-04-03T08:55:13.057Z,13352.00
2023-04-03T08:56:13.048Z,13856.00
2023-04-03T08:57:13.056Z,14192.00
2023-04-03T08:58:13.043Z,14500.00
2023-04-03T08:59:13.011Z,14920.00
2023-04-03T09:00:12.995Z,14640.00
2023-04-03T09:01:13.019Z,14884.00
2023-04-03T09:02:12.971Z,14440.00
2023-04-03T09:03:13.225Z,14508.00
2023-04-03T09:04:13.018Z,14356.00
2023-04-03T09:05:12.939Z,14208.00
2023-04-03T09:06:12.913Z,13784.00
2023-04-03T09:07:12.894Z,13628.00
2023-04-03T09:08:12.884Z,13648.00
2023-04-03T09:09:12.874Z,13616.00
2023-04-03T09:10:13.057Z,13600.00
2023-04-03T09:11:12.848Z,13792.00
2023-04-03T09:12:12.829Z,14164.00
2023-04-03T09:13:12.814Z,14696.00
2023-04-03T09:14:12.806Z,15140.00
2023-04-03T09:15:12.794Z,14916.00
2023-04-03T09:16:12.840Z,14880.00
2023-04-03T09:17:12.762Z,15132.00
2023-04-03T09:18:12.766Z,15212.00
2023-04-03T09:19:12.864Z,15584.00
2023-04-03T09:20:12.726Z,15872.00
2023-04-03T09:21:12.709Z,15552.00
2023-04-03T09:22:13.047Z,15872.00
2023-04-03T09:23:12.676Z,15712.00
2023-04-03T09:24:12.674Z,15840.00
2023-04-03T09:25:12.654Z,15872.00
2023-04-03T09:26:12.671Z,15744.00
2023-04-03T09:27:12.659Z,16000.00
2023-04-03T09:28:12.625Z,16672.00
2023-04-03T09:29:12.621Z,17376.00
2023-04-03T09:30:12.588Z,17888.00
2023-04-03T09:31:12.625Z,17504.00
2023-04-03T09:32:12.576Z,16640.00
2023-04-03T09:33:12.620Z,15680.00
2023-04-03T09:34:12.533Z,14928.00
2023-04-03T09:35:20.582Z,14788.00
2023-04-03T09:36:13.547Z,15680.00
2023-04-03T09:37:12.494Z,14888.00
2023-04-03T09:38:12.479Z,14752.00
2023-04-03T09:39:12.475Z,14692.00
2023-04-03T09:40:12.465Z,14732.00
2023-04-03T09:41:12.430Z,14696.00
2023-04-03T09:42:12.432Z,14412.00
2023-04-03T09:43:12.412Z,14132.00
2023-04-03T09:44:12.406Z,13864.00
2023-04-03T09:45:12.387Z,13996.00
2023-04-03T09:46:12.496Z,14316.00
2023-04-03T09:47:12.384Z,14388.00
2023-04-03T09:48:16.205Z,14304.00
2023-04-03T09:49:12.339Z,13404.00
2023-04-03T09:50:12.325Z,12552.00
2023-04-03T09:51:12.719Z,11604.00
2023-04-03T09:52:12.291Z,11136.00
2023-04-03T09:53:12.274Z,10864.00
2023-04-03T09:54:12.268Z,10828.00
2023-04-03T09:55:12.398Z,11384.00
2023-04-03T09:56:12.250Z,12596.00
2023-04-03T09:57:12.280Z,13952.00
2023-04-03T09:58:12.215Z,15284.00
2023-04-03T09:59:12.197Z,16576.00
2023-04-03T10:00:12.183Z,16896.00
2023-04-03T10:01:12.232Z,16768.00
2023-04-03T10:02:12.156Z,15904.00
2023-04-03T10:03:12.177Z,14736.00
2023-04-03T10:04:12.168Z,14036.00
2023-04-03T10:05:12.461Z,13276.00
2023-04-03T10:06:12.098Z,12564.00
2023-04-03T10:07:12.286Z,11828.00
2023-04-03T10:08:12.090Z,10712.00
2023-04-03T10:09:12.061Z,9968.00
2023-04-03T10:10:12.044Z,9868.00
2023-04-03T10:11:12.041Z,10200.00
2023-04-03T10:12:12.019Z,10560.00
2023-04-03T10:13:16.483Z,11084.00
2023-04-03T10:14:13.057Z,11420.00
2023-04-03T10:15:12.017Z,11772.00
2023-04-03T10:16:11.987Z,12392.00
2023-04-03T10:17:11.951Z,13216.00
2023-04-03T10:18:24.012Z,14444.00
2023-04-03T10:19:12.949Z,15872.00
2023-04-03T10:20:11.917Z,17504.00
2023-04-03T10:21:24.715Z,19104.00
2023-04-03T10:22:13.472Z,20224.00
2023-04-03T10:23:11.992Z,21632.00
2023-04-03T10:24:11.858Z,22176.00
2023-04-03T10:25:11.842Z,21920.00
2023-04-03T10:26:13.994Z,20448.00
2023-04-03T10:27:11.838Z,19264.00
2023-04-03T10:28:11.801Z,18784.00
2023-04-03T10:29:11.788Z,18336.00
2023-04-03T10:30:11.781Z,18080.00
2023-04-03T10:31:11.802Z,17952.00
2023-04-03T10:32:11.743Z,18144.00
2023-04-03T10:33:11.730Z,18848.00
2023-04-03T10:34:11.726Z,19552.00
2023-04-03T10:35:11.711Z,20000.00
2023-04-03T10:36:11.725Z,20480.00
2023-04-03T10:37:11.678Z,20352.00
2023-04-03T10:38:11.666Z,20032.00
2023-04-03T10:39:11.771Z,19776.00
2023-04-03T10:40:11.636Z,19040.00
2023-04-03T10:41:11.618Z,18304.00
2023-04-03T10:42:17.040Z,17632.00
2023-04-03T10:43:11.848Z,16736.00
2023-04-03T10:44:11.608Z,16128.00
2023-04-03T10:45:11.567Z,15712.00
2023-04-03T10:46:11.623Z,15112.00
2023-04-03T10:47:11.584Z,14480.00
2023-04-03T10:48:11.647Z,13948.00
2023-04-03T10:49:11.514Z,13172.00
2023-04-03T10:50:11.508Z,12996.00
2023-04-03T10:51:11.480Z,13152.00
2023-04-03T10:52:11.473Z,13156.00
2023-04-03T10:53:11.458Z,13276.00
2023-04-03T10:54:11.453Z,13448.00
2023-04-03T10:55:11.556Z,13552.00
2023-04-03T10:56:11.429Z,13896.00
2023-04-03T10:57:13.066Z,14072.00
2023-04-03T10:58:12.524Z,14124.00
2023-04-03T10:59:11.371Z,14248.00
2023-04-03T11:00:11.371Z,13968.00
2023-04-03T11:01:11.380Z,13356.00
2023-04-03T11:02:11.338Z,12632.00
2023-04-03T11:03:11.397Z,12220.00
2023-04-03T11:04:11.348Z,12164.00
2023-04-03T11:05:11.302Z,12420.00
2023-04-03T11:06:11.288Z,12608.00
2023-04-03T11:07:11.269Z,12772.00
2023-04-03T11:08:11.294Z,12636.00
2023-04-03T11:09:11.242Z,12676.00
2023-04-03T11:10:11.229Z,12556.00
2023-04-03T11:11:11.381Z,12424.00
2023-04-03T11:12:11.202Z,12176.00
2023-04-03T11:13:11.187Z,11924.00
2023-04-03T11:14:11.173Z,12140.00
2023-04-03T11:15:11.168Z,12620.00
2023-04-03T11:16:11.183Z,13432.00
2023-04-03T11:17:11.156Z,14036.00
2023-04-03T11:18:11.884Z,14528.00
2023-04-03T11:19:11.109Z,14256.00
2023-04-03T11:20:11.099Z,14440.00
2023-04-03T11:21:11.076Z,14328.00
2023-04-03T11:22:11.070Z,15300.00
2023-04-03T11:23:11.052Z,16768.00
2023-04-03T11:24:11.038Z,17152.00
2023-04-03T11:25:11.222Z,17248.00
2023-04-03T11:26:11.010Z,17248.00
2023-04-03T11:27:11.120Z,17472.00
2023-04-03T11:28:10.992Z,17696.00
2023-04-03T11:29:13.935Z,17984.00
2023-04-03T11:30:10.961Z,18368.00
2023-04-03T11:31:10.989Z,18304.00
2023-04-03T11:32:10.982Z,18144.00
2023-04-03T11:33:10.939Z,17600.00
2023-04-03T11:34:10.899Z,16544.00
2023-04-03T11:35:10.904Z,15156.00
2023-04-03T11:36:24.653Z,14124.00
2023-04-03T11:37:11.915Z,13244.00
2023-04-03T11:38:10.839Z,12904.00
2023-04-03T11:39:10.833Z,12604.00
2023-04-03T11:40:10.818Z,12480.00
2023-04-03T11:41:10.811Z,12280.00
2023-04-03T11:42:13.164Z,11836.00
2023-04-03T11:43:10.903Z,11460.00
2023-04-03T11:44:10.762Z,11260.00
2023-04-03T11:45:10.751Z,11020.00
2023-04-03T11:46:10.781Z,10760.00
2023-04-03T11:47:10.805Z,10564.00
2023-04-03T11:48:23.720Z,10704.00
2023-04-03T11:49:11.717Z,10980.00
2023-04-03T11:50:10.685Z,11304.00
2023-04-03T11:51:10.664Z,11908.00
2023-04-03T11:52:10.659Z,12560.00
2023-04-03T11:53:10.643Z,13132.00
2023-04-03T11:54:10.626Z,13400.00
2023-04-03T11:55:10.613Z,13548.00
2023-04-03T11:56:11.043Z,13584.00
2023-04-03T11:57:10.617Z,13852.00
2023-04-03T11:58:10.563Z,13968.00
2023-04-03T11:59:10.682Z,14132.00
2023-04-03T12:00:10.557Z,14524.00
2023-04-03T12:01:10.527Z,15152.00
2023-04-03T12:02:10.546Z,15420.00
2023-04-03T12:03:10.596Z,15540.00
2023-04-03T12:04:10.566Z,15572.00
2023-04-03T12:05:10.477Z,15500.00
2023-04-03T12:06:10.463Z,15808.00
2023-04-03T12:07:10.471Z,15776.00
2023-04-03T12:08:10.446Z,15744.00
2023-04-03T12:09:10.452Z,15268.00
2023-04-03T12:10:11.528Z,14588.00
2023-04-03T12:11:10.539Z,14176.00
2023-04-03T12:12:10.375Z,13760.00
2023-04-03T12:13:10.366Z,13640.00
2023-04-03T12:14:10.349Z,13212.00
2023-04-03T12:15:10.586Z,12260.00
2023-04-03T12:16:10.322Z,11176.00
2023-04-03T12:17:10.415Z,10428.00
2023-04-03T12:18:10.356Z,10124.00
2023-04-03T12:19:10.283Z,10412.00
2023-04-03T12:20:10.306Z,10652.00
2023-04-03T12:21:10.262Z,10836.00
2023-04-03T12:22:10.245Z,11008.00
2023-04-03T12:23:10.232Z,10904.00
2023-04-03T12:24:10.244Z,10376.00
2023-04-03T12:25:10.273Z,9776.00
2023-04-03T12:26:10.189Z,9644.00
2023-04-03T12:27:10.178Z,9668.00